Pagrindinis puslapis
METAR-TAF:

METAR-TAF

Oro uostai :

Rafha, Saudo Arabija

platuma: 29-37N, ilguma: 043-29E, Aukštis: 449 m

Dabartinis oras

Ataskaita buvo paskelbta 1 valandą ir 27 minutes, ne 10:00 UTC
Vėjas 11 kt iš Rytų/Šiaurės Rytų
Temperatūra 41°C
Drėgmė 7%
Slėgis 1011 hPa
Matomumas 10 km arba daugiau
nėra debesų žemiau 1500 m ir nėra kamuolinių lietaus debesų

METAR: OERF 311000Z 06011KT CAVOK 41/M02 Q1011

Laikas: 14:27 (11:27 UTC)

Prognozė

Ataskaita buvo paskelbta 12 valandos ir 27 minutes, ne 23:00 UTC
Prognozė galioja nuo 31 metu 00 UTC su 01 metu 06 UTC
Vėjas 8 kt iš Šiaurės Rytų su gūsio iki 18 kt
Matomumas 10 km arba daugiau
nėra debesų žemiau 1500 m ir nėra kamuolinių lietaus debesų
Laikinai
nuo 31 metu 04 UTC su 31 metu 14 UTC
Matomumas: 2500 m
Dulkes pustymas
Tapsmas
nuo 31 metu 16 UTC su 31 metu 18 UTC
Vėjas 3 kt nuo kintamojo kryptimis

TAF: OERF 302300Z 3100/0106 04008G18KT CAVOK TEMPO 3104/3114 2500 BLDU BECMG 3116/3118 VRB03KT

Orai ataskaitas ir orų prognozės (METAR, TAF).

turimą stotys yra geltonos ir raudonos taškus žemėlapyje.

Perkelti pele per norėdami pamatyti stoties vardą.

Tada spustelėkite, norėdami matyti oro stebėjimo ir prognozės.

Norėdami pakeisti žemėlapį: spustelėkite ant žalios mygtukų su juodo kryžiaus žemyn,; žalią mygtuką su brūkšneliu, jei norite nutolinti; arba žalių rodyklių gretimoms žemėlapius.


METAR-TAF: